Impacts TAF Board INFO
FOR SITUATIONAL AWARENESS. NOT TO BE USED FOR FLIGHT PLANNING PURPOSES.
IDs:

KSAN - San Diego Intl Arpt, CA, US

Issued at 0857 UTC 30 May 2017
Updated at 0912 UTC 30 May 2017
Potential Impact None Slight Moderate High
Time0851Z 30/10Z 30/11Z 30/12Z 30/13Z 30/14Z 30/15Z 30/16Z 30/17Z 30/18Z 30/19Z 30/20Z 30/21Z 30/22Z>>
Type OBS PRVL PRVL PRVL PRVL PRVL PRVL PRVL PRVL PRVL PRVL PRVL PRVL PRVL
VIS 9 >6 >6 >6 >6 >6 >6 >6 >6 >6 >6 >6 >6 >6
CIG 11 11 11 11 11 11 11 11 11 11 18 18 18 18
Cover OVC OVC OVC OVC OVC OVC OVC OVC OVC OVC BKN BKN BKN BKN
FltCat MVFR MVFR MVFR MVFR MVFR MVFR MVFR MVFR MVFR MVFR MVFR MVFR MVFR MVFR
WX -- -- -- -- -- -- -- -- -- -- -- -- -- --
WDir 170 170 170 170 170 170 170 170 170 170 220 220 220 220
WSpd 5 5 5 5 5 5 5 5 5 5 9 9 9 9
WGst -- -- -- -- -- -- -- -- -- -- -- -- -- --

Raw TAF
KSAN 300857Z 3009/3112 17005KT P6SM OVC011
  FM301900 22009KT P6SM BKN018
  FM310000 VRB04KT P6SM OVC015


Raw METAR
KSAN 300851Z 17005KT 9SM OVC011 16/13 A2993 RMK AO2 SLP133 T01610133 58011
KSAN 300751Z 19005KT 9SM OVC012 16/13 A2994 RMK AO2 SLP138 T01610133 401940161
KSAN 300651Z 19004KT 9SM OVC012 16/13 A2995 RMK AO2 SLP141 T01610133

METAR Board
Radar Display
Forecast Discussion

FOR SITUATIONAL AWARENESS. NOT TO BE USED FOR FLIGHT PLANNING PURPOSES.

Page loaded:  09:12 UTC  |   02:12 AM Pacific  |   03:12 AM Mountain  |   04:12 AM Central  |   05:12 AM Eastern

 

ADVISORIES

FORECASTS

FORECASTS

OBSERVATIONS

USER TOOLS

ABOUT US